Time;durP1;ratioP1;P1;durP2;ratioP2;P2;SDS_P1;SDS_P2;PMS_P1;PMS_P2;Temp;Humidity;BMP_temperature;BMP_pressure;BME280_temperature;BME280_humidity;BME280_pressure;Samples;Min_cycle;Max_cycle;Signal;HPM_P1;HPM_P2
2021/04/16 00:00:29;;;;;;;19.05;11.68;;;179.50;1792.00;;;;;;5093104;28;20513;-77
2021/04/16 00:02:55;;;;;;;19.58;12.27;;;179.40;1766.40;;;;;;5091395;28;20115;-78
2021/04/16 00:05:21;;;;;;;16.75;11.88;;;179.50;1792.00;;;;;;5091146;28;20025;-78
2021/04/16 00:07:47;;;;;;;18.75;12.63;;;179.40;1766.40;;;;;;5084857;28;20025;-77
2021/04/16 00:10:19;;;;;;;15.98;12.05;;;179.50;1766.40;;;;;;5080257;28;20020;-77
2021/04/16 00:12:45;;;;;;;21.52;12.57;;;179.50;1766.40;;;;;;5096739;28;20150;-76
2021/04/16 00:15:15;;;;;;;19.73;12.48;;;179.50;1766.40;;;;;;5119199;27;20123;-77
2021/04/16 00:17:41;;;;;;;22.50;14.32;;;179.50;1792.00;;;;;;5086024;28;20020;-77
2021/04/16 00:20:10;;;;;;;21.45;14.38;;;179.40;1792.00;;;;;;5092226;28;20036;-77
2021/04/16 00:22:36;;;;;;;22.30;15.30;;;179.40;1792.00;;;;;;5083377;28;20549;-78
2021/04/16 00:25:03;;;;;;;24.77;16.08;;;179.40;1792.00;;;;;;5096122;28;20124;-79
2021/04/16 00:27:29;;;;;;;26.50;16.25;;;179.30;1792.00;;;;;;5074921;28;20050;-78
2021/04/16 00:29:55;;;;;;;24.25;15.25;;;179.30;1792.00;;;;;;5074812;28;20542;-78
2021/04/16 00:32:20;;;;;;;26.63;13.88;;;179.20;1792.00;;;;;;5076090;28;20470;-79
2021/04/16 00:34:46;;;;;;;24.65;15.75;;;179.30;1766.40;;;;;;5076088;28;20044;-78
2021/04/16 00:37:12;;;;;;;22.80;13.85;;;179.30;1766.40;;;;;;5127494;27;20119;-78
2021/04/16 00:39:38;;;;;;;25.60;15.02;;;179.20;1792.00;;;;;;5113613;27;20048;-80
2021/04/16 00:42:04;;;;;;;24.15;14.63;;;179.20;1792.00;;;;;;5088597;28;20080;-78
2021/04/16 00:44:29;;;;;;;20.88;13.40;;;179.20;1766.40;;;;;;5091538;28;20044;-79
2021/04/16 00:47:01;;;;;;;22.08;13.82;;;154.50;1792.00;;;;;;5079138;28;20532;-78
2021/04/16 00:49:33;;;;;;;20.10;14.82;;;154.50;1792.00;;;;;;5093835;28;20477;-79
2021/04/16 00:52:01;;;;;;;22.00;12.52;;;154.50;1766.40;;;;;;5087458;28;20035;-78
2021/04/16 00:54:34;;;;;;;19.98;13.07;;;154.50;1766.40;;;;;;5084573;28;20153;-78
2021/04/16 00:57:00;;;;;;;20.63;12.32;;;154.50;1766.40;;;;;;5074361;28;20107;-77
2021/04/16 00:59:30;;;;;;;20.20;12.80;;;154.40;1766.40;;;;;;5091828;28;20100;-78
2021/04/16 01:01:58;;;;;;;21.00;12.85;;;154.40;1766.40;;;;;;5080568;28;20032;-77
2021/04/16 01:04:24;;;;;;;19.08;12.73;;;154.40;1766.40;;;;;;5073411;28;20041;-78
2021/04/16 01:06:51;;;;;;;20.67;11.15;;;154.40;1766.40;;;;;;5078632;28;20051;-78
2021/04/16 01:09:17;;;;;;;20.63;12.73;;;154.30;1766.40;;;;;;5095535;28;20020;-77
2021/04/16 01:11:43;;;;;;;17.95;12.85;;;154.30;1766.40;;;;;;5077901;28;20032;-78
2021/04/16 01:14:09;;;;;;;19.48;12.82;;;154.30;1766.40;;;;;;5075526;28;20035;-77
2021/04/16 01:16:35;;;;;;;23.38;11.88;;;154.30;1740.80;;;;;;5093437;28;20545;-78
2021/04/16 01:19:05;;;;;;;23.25;13.15;;;154.30;1740.80;;;;;;5093574;28;20103;-78
2021/04/16 01:21:48;;;;;;;22.27;11.88;;;154.20;1740.80;;;;;;5087378;28;20486;-78
2021/04/16 01:24:27;;;;;;;19.95;12.75;;;154.20;1740.80;;;;;;5075245;28;20024;-78
2021/04/16 01:26:54;;;;;;;14.55;10.75;;;154.20;1740.80;;;;;;5089796;28;20028;-78
2021/04/16 01:29:21;;;;;;;16.63;11.65;;;154.20;1740.80;;;;;;5093725;28;20047;-78
2021/04/16 01:31:49;;;;;;;16.30;11.57;;;154.10;1740.80;;;;;;5093432;28;20397;-78
2021/04/16 01:34:22;;;;;;;18.67;11.63;;;154.10;1740.80;;;;;;5114797;27;20103;-78
2021/04/16 01:36:51;;;;;;;17.02;10.43;;;154.10;1766.40;;;;;;5090570;28;20123;-78
2021/04/16 01:39:17;;;;;;;19.35;11.90;;;154.00;1740.80;;;;;;5081648;28;20047;-79
2021/04/16 01:41:43;;;;;;;15.30;10.70;;;154.00;1766.40;;;;;;5074822;28;20528;-79
2021/04/16 01:44:15;;;;;;;15.68;10.65;;;154.00;1740.80;;;;;;5123837;27;20069;-78
2021/04/16 01:47:01;;;;;;;20.13;10.45;;;154.00;1740.80;;;;;;5090835;28;20027;-78
2021/04/16 01:49:36;;;;;;;18.70;10.45;;;154.00;1766.40;;;;;;5084799;28;20030;-79
2021/04/16 01:52:05;;;;;;;16.35;11.25;;;153.90;1766.40;;;;;;5091093;28;20024;-78
2021/04/16 01:54:38;;;;;;;14.60;9.82;;;153.90;1792.00;;;;;;5093310;28;20095;-78
2021/04/16 01:57:11;;;;;;;14.35;9.55;;;153.90;1766.40;;;;;;5090161;28;20050;-78
2021/04/16 01:59:39;;;;;;;13.43;9.63;;;153.90;1766.40;;;;;;5074130;28;20056;-77
2021/04/16 02:02:08;;;;;;;12.65;9.00;;;153.80;1766.40;;;;;;5074860;28;20020;-80
2021/04/16 02:04:35;;;;;;;15.48;9.45;;;153.80;1766.40;;;;;;5087056;28;20021;-79
2021/04/16 02:07:01;;;;;;;17.08;9.80;;;153.80;1766.40;;;;;;5074142;28;20035;-77
2021/04/16 02:09:31;;;;;;;18.00;10.15;;;153.70;1766.40;;;;;;5072101;28;20090;-77
2021/04/16 02:11:57;;;;;;;15.68;7.95;;;153.70;1766.40;;;;;;5074330;28;20462;-78
2021/04/16 02:14:26;;;;;;;13.90;8.57;;;153.70;1766.40;;;;;;5074494;28;20048;-78
2021/04/16 02:16:54;;;;;;;11.02;8.20;;;153.70;1766.40;;;;;;5083118;28;20028;-78
2021/04/16 02:19:21;;;;;;;14.77;10.05;;;153.70;1766.40;;;;;;5086590;28;20021;-78
2021/04/16 02:21:47;;;;;;;14.77;9.18;;;153.60;1792.00;;;;;;5074160;28;20367;-78
2021/04/16 02:24:14;;;;;;;11.68;8.82;;;153.60;1792.00;;;;;;5072474;28;20032;-80
2021/04/16 02:26:40;;;;;;;13.57;8.73;;;128.90;1792.00;;;;;;5072760;28;20461;-80
2021/04/16 02:29:08;;;;;;;13.48;9.25;;;128.90;1792.00;;;;;;5070905;28;20078;-78
2021/04/16 02:31:34;;;;;;;13.40;8.73;;;128.90;1817.60;;;;;;5078145;28;20017;-77
2021/04/16 02:34:01;;;;;;;13.50;9.32;;;128.90;1792.00;;;;;;5089467;28;20020;-77
2021/04/16 02:36:27;;;;;;;10.13;8.25;;;128.80;1817.60;;;;;;5073886;28;20028;-78
2021/04/16 02:38:56;;;;;;;12.68;8.05;;;128.80;1792.00;;;;;;5076726;28;20093;-77
2021/04/16 02:41:22;;;;;;;14.13;8.85;;;128.80;1817.60;;;;;;5089721;28;20024;-77
2021/04/16 02:43:49;;;;;;;9.15;7.47;;;128.80;1843.20;;;;;;5090695;28;20131;-77
2021/04/16 02:46:15;;;;;;;11.30;7.28;;;128.80;1817.60;;;;;;5092647;28;20024;-77
2021/04/16 02:48:41;;;;;;;10.05;6.97;;;128.80;1817.60;;;;;;5080443;28;20424;-77
2021/04/16 02:51:07;;;;;;;9.02;6.65;;;128.70;1817.60;;;;;;5083989;28;20077;-77
2021/04/16 02:53:33;;;;;;;7.78;6.50;;;128.70;1817.60;;;;;;5085331;28;20107;-77
2021/04/16 02:55:59;;;;;;;7.30;6.45;;;128.70;1817.60;;;;;;5093383;28;20020;-77
2021/04/16 02:58:25;;;;;;;11.48;7.40;;;128.70;1817.60;;;;;;5091658;28;20031;-77
2021/04/16 03:00:51;;;;;;;8.70;6.35;;;128.70;1817.60;;;;;;5092933;28;20480;-77
2021/04/16 03:03:17;;;;;;;7.60;5.97;;;128.60;1817.60;;;;;;5078097;28;20029;-77
2021/04/16 03:05:42;;;;;;;7.63;6.63;;;128.70;1817.60;;;;;;5091250;28;20107;-77
2021/04/16 03:08:08;;;;;;;7.15;6.35;;;128.70;1817.60;;;;;;5093186;28;20103;-77
2021/04/16 03:10:36;;;;;;;12.77;7.18;;;128.70;1817.60;;;;;;5090344;28;20021;-78
2021/04/16 03:13:02;;;;;;;9.25;6.78;;;128.70;1817.60;;;;;;5073235;28;20508;-77
2021/04/16 03:15:28;;;;;;;10.30;7.50;;;128.60;1817.60;;;;;;5083691;28;20401;-77
2021/04/16 03:17:54;;;;;;;10.80;7.97;;;128.70;1817.60;;;;;;5088044;28;20035;-78
2021/04/16 03:20:23;;;;;;;12.00;7.57;;;128.60;1817.60;;;;;;5080049;28;20032;-78
2021/04/16 03:22:49;;;;;;;14.85;7.72;;;128.60;1817.60;;;;;;5073248;28;20021;-77
2021/04/16 03:25:15;;;;;;;17.65;9.05;;;128.60;1817.60;;;;;;5089398;28;20032;-78
2021/04/16 03:27:41;;;;;;;13.23;8.75;;;128.60;1817.60;;;;;;5092980;28;20051;-77
2021/04/16 03:30:26;;;;;;;12.95;7.68;;;128.60;1817.60;;;;;;5093301;28;20024;-79
2021/04/16 03:32:52;;;;;;;13.05;8.85;;;128.60;1817.60;;;;;;5074989;28;20059;-78
2021/04/16 03:35:19;;;;;;;16.35;8.18;;;128.60;1843.20;;;;;;5089250;28;20059;-77
2021/04/16 03:37:45;;;;;;;14.57;8.57;;;128.60;1817.60;;;;;;5091850;28;20021;-78
2021/04/16 03:40:14;;;;;;;16.52;10.10;;;128.60;1817.60;;;;;;5091827;28;20118;-78
2021/04/16 03:42:40;;;;;;;22.45;10.95;;;128.50;1843.20;;;;;;5095799;28;20024;-78
2021/04/16 03:45:07;;;;;;;16.30;8.38;;;128.50;1843.20;;;;;;5095504;28;20044;-78
2021/04/16 03:47:33;;;;;;;20.83;10.57;;;128.50;1843.20;;;;;;5095463;28;20401;-77
2021/04/16 03:49:59;;;;;;;16.83;10.38;;;128.50;1843.20;;;;;;5082834;28;20096;-77
2021/04/16 03:52:28;;;;;;;24.75;10.75;;;128.40;1868.80;;;;;;5082532;28;20099;-77
2021/04/16 03:54:54;;;;;;;18.95;11.43;;;128.50;1843.20;;;;;;5080625;28;20444;-77
2021/04/16 03:57:21;;;;;;;15.35;9.85;;;128.50;1843.20;;;;;;5087649;28;20023;-78
2021/04/16 03:59:47;;;;;;;19.10;10.65;;;128.50;1843.20;;;;;;5091329;28;20024;-77
2021/04/16 04:02:13;;;;;;;10.98;8.73;;;128.50;1843.20;;;;;;5084297;28;20020;-78
2021/04/16 04:04:39;;;;;;;13.27;8.70;;;128.40;1868.80;;;;;;5075283;28;20513;-77
2021/04/16 04:07:05;;;;;;;13.55;8.80;;;128.40;1868.80;;;;;;5074662;28;20555;-77
2021/04/16 04:09:31;;;;;;;21.63;8.50;;;128.40;1868.80;;;;;;5080854;28;20027;-77
2021/04/16 04:11:57;;;;;;;13.85;8.75;;;128.40;1868.80;;;;;;5078814;28;20024;-78
2021/04/16 04:14:23;;;;;;;19.90;10.07;;;128.40;1868.80;;;;;;5088179;28;20035;-78
2021/04/16 04:17:00;;;;;;;19.75;11.07;;;128.40;1868.80;;;;;;5096745;28;20078;-78
2021/04/16 04:19:29;;;;;;;21.90;12.18;;;128.40;1868.80;;;;;;5093917;28;20035;-77
2021/04/16 04:21:56;;;;;;;24.38;11.60;;;128.40;1868.80;;;;;;5076654;28;20801;-77
2021/04/16 04:24:23;;;;;;;29.48;16.70;;;128.40;1868.80;;;;;;5081121;28;20035;-78
2021/04/16 04:26:49;;;;;;;26.92;15.52;;;128.40;1868.80;;;;;;5088585;28;20024;-78
2021/04/16 04:29:18;;;;;;;21.63;13.00;;;128.40;1868.80;;;;;;5075184;28;20020;-78
2021/04/16 04:31:47;;;;;;;21.65;13.65;;;128.40;1868.80;;;;;;5080002;28;20060;-79
2021/04/16 04:34:25;;;;;;;19.65;11.60;;;128.40;1868.80;;;;;;5096297;28;20078;-78
2021/04/16 04:36:54;;;;;;;18.48;11.38;;;128.50;1868.80;;;;;;5095653;28;20016;-78
2021/04/16 04:39:21;;;;;;;18.52;11.85;;;128.50;1868.80;;;;;;5094431;28;20040;-78
2021/04/16 04:41:47;;;;;;;17.85;11.02;;;128.50;1843.20;;;;;;5096518;28;20036;-78
2021/04/16 04:44:14;;;;;;;29.38;15.80;;;128.50;1868.80;;;;;;5096012;28;20040;-78
2021/04/16 04:46:40;;;;;;;38.13;17.42;;;128.60;1868.80;;;;;;5075156;28;20062;-78
2021/04/16 04:49:07;;;;;;;50.97;22.23;;;128.60;1843.20;;;;;;5075925;28;20021;-78
2021/04/16 04:51:34;;;;;;;42.67;19.67;;;128.60;1868.80;;;;;;5073688;28;20107;-78
2021/04/16 04:54:00;;;;;;;32.22;15.60;;;128.60;1868.80;;;;;;5090514;28;20465;-78
2021/04/16 04:56:26;;;;;;;25.02;13.65;;;128.60;1868.80;;;;;;5128785;27;20142;-78
2021/04/16 04:58:52;;;;;;;18.65;13.25;;;128.70;1843.20;;;;;;5128893;27;20469;-78
2021/04/16 05:01:18;;;;;;;17.60;11.85;;;128.70;1843.20;;;;;;5117793;27;20040;-80
2021/04/16 05:03:43;;;;;;;24.17;12.85;;;128.60;1868.80;;;;;;5083084;28;20380;-78
2021/04/16 05:06:09;;;;;;;19.17;11.77;;;128.70;1868.80;;;;;;5096086;28;20024;-80
2021/04/16 05:08:35;;;;;;;18.08;12.07;;;128.70;1868.80;;;;;;5088335;28;20535;-81
2021/04/16 05:11:01;;;;;;;17.55;12.20;;;128.80;1868.80;;;;;;5088901;28;20031;-79
2021/04/16 05:13:28;;;;;;;17.92;12.63;;;128.80;1868.80;;;;;;5121247;27;20048;-80
2021/04/16 05:15:54;;;;;;;19.02;13.38;;;128.90;1868.80;;;;;;5075608;28;20041;-83
2021/04/16 05:18:19;;;;;;;24.83;19.55;;;128.90;1868.80;;;;;;5091067;28;20470;-79
2021/04/16 05:20:45;;;;;;;35.88;31.77;;;128.90;1894.40;;;;;;5075971;28;20020;-80
2021/04/16 05:23:11;;;;;;;23.83;19.42;;;153.60;1894.40;;;;;;5078548;28;20027;-81
2021/04/16 05:25:37;;;;;;;40.92;27.42;;;153.60;1894.40;;;;;;5075709;28;20089;-81
2021/04/16 05:28:03;;;;;;;52.85;41.83;;;153.70;1894.40;;;;;;5080393;28;20068;-80
2021/04/16 05:30:29;;;;;;;30.48;22.08;;;153.70;1894.40;;;;;;5077856;28;20043;-82
2021/04/16 05:32:55;;;;;;;20.38;16.00;;;153.70;1894.40;;;;;;5094859;28;20024;-83
2021/04/16 05:35:20;;;;;;;25.23;16.27;;;153.80;1894.40;;;;;;5117324;27;20045;-82
2021/04/16 05:37:46;;;;;;;25.10;20.25;;;153.80;1920.00;;;;;;5075619;28;20040;-83
2021/04/16 05:40:13;;;;;;;23.75;15.65;;;153.80;1920.00;;;;;;5077492;28;20024;-81
2021/04/16 05:42:39;;;;;;;29.25;16.38;;;153.90;1920.00;;;;;;5075495;28;20030;-81
2021/04/16 05:45:06;;;;;;;21.75;13.48;;;153.90;1945.60;;;;;;5075677;28;20044;-81
2021/04/16 05:47:32;;;;;;;22.05;14.75;;;154.00;1945.60;;;;;;5074556;28;20016;-82
2021/04/16 05:49:58;;;;;;;12.75;10.85;;;154.10;1945.60;;;;;;5074613;28;20379;-82
2021/04/16 05:52:24;;;;;;;21.15;13.00;;;154.20;1920.00;;;;;;5075534;28;20044;-81
2021/04/16 05:54:50;;;;;;;19.20;13.02;;;154.30;1945.60;;;;;;5073601;28;20068;-81
2021/04/16 05:57:16;;;;;;;15.15;11.52;;;154.30;1920.00;;;;;;5074574;28;20025;-81
2021/04/16 05:59:43;;;;;;;14.05;10.70;;;154.40;1920.00;;;;;;5074345;28;20028;-81
2021/04/16 06:02:33;;;;;;;16.98;12.23;;;154.40;1920.00;;;;;;5074066;28;20127;-82
2021/04/16 06:05:00;;;;;;;12.70;10.13;;;154.50;1920.00;;;;;;5074144;28;20032;-82
2021/04/16 06:07:26;;;;;;;18.08;11.65;;;154.50;1945.60;;;;;;5074138;28;20021;-83
2021/04/16 06:09:53;;;;;;;19.65;11.20;;;179.20;1945.60;;;;;;5073747;28;20104;-82
2021/04/16 06:12:20;;;;;;;14.95;11.27;;;179.20;1945.60;;;;;;5073658;28;20025;-82
2021/04/16 06:14:47;;;;;;;15.93;11.73;;;179.30;1945.60;;;;;;5074061;28;20049;-82
2021/04/16 06:17:14;;;;;;;17.20;11.60;;;179.30;1945.60;;;;;;5074930;28;20029;-82
2021/04/16 06:19:43;;;;;;;13.90;10.63;;;179.40;1920.00;;;;;;5073938;28;20020;-82
2021/04/16 06:22:10;;;;;;;14.13;11.10;;;179.50;1920.00;;;;;;5094516;28;20508;-82
2021/04/16 06:24:35;;;;;;;15.75;11.68;;;179.50;1920.00;;;;;;5093430;28;20016;-81
2021/04/16 06:27:03;;;;;;;15.80;12.73;;;179.60;1920.00;;;;;;5093000;28;20447;-81
2021/04/16 06:29:29;;;;;;;12.70;11.43;;;179.70;1920.00;;;;;;5093924;28;20024;-81
2021/04/16 06:31:55;;;;;;;14.80;12.88;;;179.80;1920.00;;;;;;5093476;28;20039;-81
2021/04/16 06:34:21;;;;;;;13.70;10.88;;;179.80;1894.40;;;;;;5095250;28;20024;-81
2021/04/16 06:36:48;;;;;;;14.52;11.77;;;179.90;1894.40;;;;;;5094961;28;20538;-81
2021/04/16 06:39:14;;;;;;;14.55;12.25;;;179.90;1868.80;;;;;;5094748;28;20024;-82
2021/04/16 06:41:40;;;;;;;13.70;11.90;;;180.00;1894.40;;;;;;5094872;28;20028;-81
2021/04/16 06:44:15;;;;;;;17.70;13.13;;;180.10;1868.80;;;;;;5127714;27;20044;-81
2021/04/16 06:46:49;;;;;;;11.35;10.05;;;180.10;1868.80;;;;;;5093373;28;20115;-82
2021/04/16 06:49:22;;;;;;;12.60;10.05;;;204.80;1843.20;;;;;;5093457;28;20056;-81
2021/04/16 06:52:06;;;;;;;13.32;11.40;;;204.90;1843.20;;;;;;5093443;28;20020;-83
2021/04/16 06:54:42;;;;;;;13.23;11.43;;;204.90;1843.20;;;;;;5094674;28;20023;-82
2021/04/16 06:57:27;;;;;;;11.63;10.00;;;204.90;1817.60;;;;;;5093728;28;20145;-82
2021/04/16 07:00:26;;;;;;;10.80;9.70;;;205.00;1817.60;;;;;;5094372;28;20024;-83
2021/04/16 07:02:59;;;;;;;11.25;9.73;;;205.00;1817.60;;;;;;5094450;28;20031;-82
2021/04/16 07:05:33;;;;;;;17.38;12.32;;;205.20;1817.60;;;;;;5093259;28;20398;-82
2021/04/16 07:07:59;;;;;;;15.07;11.43;;;205.20;1817.60;;;;;;5092763;28;20032;-82
2021/04/16 07:10:32;;;;;;;17.27;12.27;;;205.30;1817.60;;;;;;5092538;28;20054;-82
2021/04/16 07:13:00;;;;;;;17.05;10.98;;;205.30;1792.00;;;;;;5094251;28;20028;-82
2021/04/16 07:15:43;;;;;;;16.00;12.55;;;205.40;1792.00;;;;;;5092794;28;20035;-81
2021/04/16 07:18:14;;;;;;;12.63;11.32;;;205.50;1792.00;;;;;;5093328;28;20020;-81
2021/04/16 07:20:40;;;;;;;19.23;11.77;;;205.50;1766.40;;;;;;5092787;28;20040;-82
2021/04/16 07:23:06;;;;;;;16.48;10.68;;;205.60;1766.40;;;;;;5094463;28;20073;-82
2021/04/16 07:25:42;;;;;;;12.95;10.85;;;205.60;1766.40;;;;;;5094228;28;20031;-80
2021/04/16 07:28:32;;;;;;;14.10;10.45;;;205.70;1766.40;;;;;;5094117;28;20035;-80
2021/04/16 07:30:58;;;;;;;15.50;10.73;;;205.70;1766.40;;;;;;5083077;28;20036;-81
2021/04/16 07:33:42;;;;;;;12.75;10.57;;;230.40;1792.00;;;;;;5092702;28;20165;-80
2021/04/16 07:36:17;;;;;;;13.77;10.23;;;230.50;1740.80;;;;;;5093965;28;20047;-86
2021/04/16 07:38:56;;;;;;;19.55;10.18;;;230.50;1740.80;;;;;;5092369;28;20495;-78
2021/04/16 07:41:29;;;;;;;11.70;10.38;;;230.60;1715.20;;;;;;5093518;28;20027;-78
2021/04/16 07:43:58;;;;;;;13.68;9.65;;;230.60;1715.20;;;;;;5091481;28;20047;-78
2021/04/16 07:46:36;;;;;;;10.75;8.68;;;230.70;1689.60;;;;;;5093157;28;20027;-78
2021/04/16 07:49:12;;;;;;;10.73;9.65;;;230.80;1715.20;;;;;;5091787;28;20028;-78
2021/04/16 07:51:39;;;;;;;11.52;9.45;;;230.80;1664.00;;;;;;5091881;28;20358;-79
2021/04/16 07:54:11;;;;;;;13.50;9.25;;;230.90;1664.00;;;;;;5092530;28;20485;-78
2021/04/16 07:56:37;;;;;;;10.23;9.18;;;230.90;1715.20;;;;;;5091389;28;20093;-78
2021/04/16 07:59:10;;;;;;;9.65;8.70;;;230.90;1638.40;;;;;;5091975;28;20024;-78
2021/04/16 08:01:54;;;;;;;14.00;9.55;;;231.00;1638.40;;;;;;5092105;28;20024;-79
2021/04/16 08:04:20;;;;;;;9.15;8.35;;;231.10;1638.40;;;;;;5093221;28;20103;-79
2021/04/16 08:06:49;;;;;;;10.13;8.60;;;231.10;1612.80;;;;;;5093084;28;20103;-79
2021/04/16 08:09:26;;;;;;;11.73;10.38;;;231.10;1612.80;;;;;;5093145;28;20020;-79
2021/04/16 08:12:14;;;;;;;9.18;8.30;;;231.10;1612.80;;;;;;5093376;28;20022;-79
2021/04/16 08:14:43;;;;;;;13.77;10.57;;;231.10;1612.80;;;;;;5092032;28;20477;-79
2021/04/16 08:17:22;;;;;;;19.40;10.90;;;231.10;1612.80;;;;;;5093111;28;20441;-79
2021/04/16 08:19:49;;;;;;;13.15;10.40;;;231.10;1612.80;;;;;;5091869;28;20024;-79
2021/04/16 08:22:36;;;;;;;10.23;9.05;;;231.20;1587.20;;;;;;5091485;28;20032;-80
2021/04/16 08:25:08;;;;;;;16.13;10.90;;;231.20;1612.80;;;;;;5092394;28;20028;-81
2021/04/16 08:27:37;;;;;;;13.10;9.40;;;231.30;1612.80;;;;;;5092359;28;20108;-79
2021/04/16 08:30:08;;;;;;;15.35;10.57;;;231.30;1561.60;;;;;;5095598;28;20037;-79
2021/04/16 08:32:40;;;;;;;11.85;8.30;;;256.00;1561.60;;;;;;5095905;28;20385;-81
2021/04/16 08:35:15;;;;;;;25.92;15.05;;;256.00;1536.00;;;;;;5095859;28;20024;-81
2021/04/16 08:37:50;;;;;;;16.42;11.57;;;256.00;1510.40;;;;;;5095525;28;20062;-81
2021/04/16 08:40:26;;;;;;;10.98;9.50;;;256.00;1536.00;;;;;;5095314;28;20035;-80
2021/04/16 08:42:51;;;;;;;14.90;11.98;;;256.00;1536.00;;;;;;5095093;28;20071;-81
2021/04/16 08:45:26;;;;;;;9.18;8.27;;;256.00;1536.00;;;;;;5095125;28;20071;-81
2021/04/16 08:48:00;;;;;;;8.52;7.68;;;256.00;1484.80;;;;;;5095498;28;20028;-80
2021/04/16 08:50:30;;;;;;;12.35;8.15;;;256.00;1459.20;;;;;;5095547;28;20070;-80
2021/04/16 08:53:01;;;;;;;9.23;8.43;;;256.10;1484.80;;;;;;5096456;28;20082;-81
2021/04/16 08:55:32;;;;;;;8.48;7.43;;;256.20;1484.80;;;;;;5095317;28;20055;-81
2021/04/16 08:58:11;;;;;;;7.00;6.38;;;256.20;1459.20;;;;;;5096341;28;20028;-80
2021/04/16 09:00:47;;;;;;;8.10;6.93;;;256.20;1433.60;;;;;;5094810;28;20032;-80
2021/04/16 09:03:38;;;;;;;18.58;15.95;;;256.20;1433.60;;;;;;5095107;28;20031;-80
2021/04/16 09:06:04;;;;;;;15.70;14.30;;;256.20;1459.20;;;;;;5095083;28;20115;-77
2021/04/16 09:08:38;;;;;;;9.52;8.52;;;256.40;1459.20;;;;;;5094630;28;20055;-79
2021/04/16 09:11:05;;;;;;;14.32;9.77;;;256.40;1484.80;;;;;;5094765;28;20024;-78
2021/04/16 09:13:40;;;;;;;9.60;8.35;;;256.40;1484.80;;;;;;5096122;28;20028;-80
2021/04/16 09:16:15;;;;;;;13.32;7.97;;;256.50;1484.80;;;;;;5094731;28;20051;-79
2021/04/16 09:18:46;;;;;;;8.98;8.02;;;256.50;1459.20;;;;;;5095779;28;20024;-79
2021/04/16 09:21:22;;;;;;;8.93;8.00;;;256.60;1459.20;;;;;;5095212;28;20027;-79
2021/04/16 09:23:48;;;;;;;10.73;8.10;;;256.60;1433.60;;;;;;5095709;28;20085;-79
2021/04/16 09:26:50;;;;;;;8.52;7.65;;;256.60;1433.60;;;;;;5094478;28;20024;-80
2021/04/16 09:29:28;;;;;;;20.77;15.73;;;256.70;1433.60;;;;;;5074001;28;20035;-82
2021/04/16 09:32:02;;;;;;;12.25;8.50;;;256.70;1459.20;;;;;;5094393;28;20016;-80
2021/04/16 09:34:43;;;;;;;16.10;11.30;;;256.70;1459.20;;;;;;5094938;28;20036;-80
2021/04/16 09:37:30;;;;;;;11.60;9.77;;;256.80;1433.60;;;;;;5095339;28;20020;-81
2021/04/16 09:40:14;;;;;;;12.70;10.07;;;256.90;1408.00;;;;;;5095724;28;20504;-79
2021/04/16 09:42:52;;;;;;;12.40;7.45;;;256.90;1382.40;;;;;;5096351;28;20032;-82
2021/04/16 09:45:30;;;;;;;28.92;21.90;;;281.60;1433.60;;;;;;5095260;28;20067;-81
2021/04/16 09:47:58;;;;;;;28.92;20.10;;;281.60;1459.20;;;;;;5094934;28;20023;-80
2021/04/16 09:50:27;;;;;;;10.73;8.30;;;281.70;1459.20;;;;;;5095235;28;20023;-80
2021/04/16 09:53:19;;;;;;;16.45;8.10;;;281.70;1459.20;;;;;;5093675;28;20025;-84
2021/04/16 09:55:57;;;;;;;8.82;7.03;;;281.80;1433.60;;;;;;5093789;28;20032;-85
2021/04/16 09:58:38;;;;;;;18.63;7.80;;;281.80;1433.60;;;;;;5095251;28;20103;-85
2021/04/16 10:01:07;;;;;;;;;;;281.70;1382.40;;;;;;5094753;28;20035;-85
2021/04/16 10:03:33;;;;;;;38.63;14.18;;;281.80;1612.80;;;;;;5092866;28;20003;-80
2021/04/16 10:06:13;;;;;;;22.48;16.23;;;281.80;1408.00;;;;;;5093852;28;20581;-80
2021/04/16 10:08:40;;;;;;;41.73;23.07;;;281.80;1408.00;;;;;;5092794;28;20028;-79
2021/04/16 10:11:07;;;;;;;14.68;9.10;;;281.90;1408.00;;;;;;5095091;28;20027;-79
2021/04/16 10:13:41;;;;;;;7.82;6.55;;;281.90;1459.20;;;;;;5093680;28;20115;-80
2021/04/16 10:16:25;;;;;;;24.83;14.27;;;281.90;1408.00;;;;;;5093484;28;20488;-78
2021/04/16 10:18:51;;;;;;;10.65;8.55;;;282.00;1408.00;;;;;;5093779;28;20544;-85
2021/04/16 10:21:17;;;;;;;16.10;10.90;;;282.00;1433.60;;;;;;5094755;28;20020;-84
2021/04/16 10:23:50;;;;;;;11.65;7.28;;;282.10;1433.60;;;;;;5093063;28;20042;-83
2021/04/16 12:41:20;;;;;;;19.60;5.50;;;333.40;1280.00;;;;;;5097130;28;20031;-82
2021/04/16 12:43:47;;;;;;;5.18;4.10;;;333.40;1280.00;;;;;;5096285;28;20044;-80
2021/04/16 12:46:28;;;;;;;8.10;5.00;;;333.50;1280.00;;;;;;5095159;28;20023;-80
2021/04/16 12:48:53;;;;;;;4.90;4.43;;;333.50;1228.80;;;;;;5096225;28;20039;-83
2021/04/16 12:51:19;;;;;;;6.38;4.30;;;333.50;1228.80;;;;;;5095176;28;20482;-82
2021/04/16 12:53:45;;;;;;;15.70;6.97;;;333.60;1254.40;;;;;;5096925;28;20019;-82
2021/04/16 12:56:16;;;;;;;9.75;5.82;;;333.60;1203.20;;;;;;5096715;28;20028;-81
2021/04/16 12:58:45;;;;;;;8.32;5.45;;;333.60;1254.40;;;;;;5095659;28;20046;-79
2021/04/16 13:01:24;;;;;;;7.65;5.25;;;333.50;1280.00;;;;;;5094334;28;20152;-79
2021/04/16 13:03:50;;;;;;;5.72;5.18;;;333.60;1228.80;;;;;;5094501;28;20027;-78
2021/04/16 13:06:33;;;;;;;6.07;5.15;;;333.60;1228.80;;;;;;5095894;28;20030;-79
2021/04/16 13:08:59;;;;;;;11.18;6.03;;;333.60;1228.80;;;;;;5095959;28;20075;-79
2021/04/16 13:11:27;;;;;;;9.35;6.30;;;333.60;1228.80;;;;;;5094484;28;20058;-79
2021/04/16 13:13:54;;;;;;;9.20;6.35;;;333.60;1177.60;;;;;;5095187;28;20084;-78
2021/04/16 13:16:20;;;;;;;6.95;5.40;;;333.50;1152.00;;;;;;5093991;28;20467;-78
2021/04/16 13:18:50;;;;;;;8.63;6.43;;;333.50;1177.60;;;;;;5095737;28;20022;-78
2021/04/16 13:21:38;;;;;;;7.05;6.10;;;333.50;1177.60;;;;;;5095948;28;20488;-77
2021/04/16 13:24:06;;;;;;;10.02;7.20;;;333.50;1228.80;;;;;;5095658;28;20082;-77
2021/04/16 13:26:33;;;;;;;10.27;6.88;;;333.50;1228.80;;;;;;5095646;28;20020;-77
2021/04/16 13:28:58;;;;;;;10.60;7.85;;;333.50;1228.80;;;;;;5095275;28;20076;-77
2021/04/16 13:31:26;;;;;;;8.18;7.25;;;333.50;1203.20;;;;;;5093798;28;20059;-77
2021/04/16 13:33:53;;;;;;;8.27;6.53;;;333.40;1228.80;;;;;;5095129;28;20021;-77
2021/04/16 13:36:23;;;;;;;6.10;5.25;;;333.40;1228.80;;;;;;5093598;28;20442;-78
2021/04/16 13:38:49;;;;;;;7.67;5.93;;;333.30;1203.20;;;;;;5092460;28;20468;-78
2021/04/16 13:41:15;;;;;;;8.27;5.57;;;333.30;1228.80;;;;;;5092829;28;20313;-77
2021/04/16 13:43:41;;;;;;;9.32;6.10;;;333.20;1203.20;;;;;;5093818;28;20520;-76
2021/04/16 13:46:13;;;;;;;6.47;5.85;;;333.20;1203.20;;;;;;5093220;28;20036;-77
2021/04/16 13:48:39;;;;;;;7.30;6.05;;;333.20;1228.80;;;;;;5095221;28;20020;-77
2021/04/16 13:51:05;;;;;;;5.85;5.35;;;333.10;1203.20;;;;;;5094842;28;20381;-76
2021/04/16 13:53:31;;;;;;;10.88;6.07;;;333.10;1228.80;;;;;;5094769;28;20024;-77
2021/04/16 13:55:56;;;;;;;7.13;6.05;;;333.00;1203.20;;;;;;5094802;28;20031;-77
2021/04/16 13:58:23;;;;;;;7.28;6.55;;;333.00;1203.20;;;;;;5093466;28;20158;-78
2021/04/16 14:00:50;;;;;;;8.77;7.90;;;332.90;1203.20;;;;;;5094555;28;20027;-77
2021/04/16 14:03:33;;;;;;;10.68;8.50;;;332.90;1228.80;;;;;;5094931;28;20050;-77
2021/04/16 14:06:03;;;;;;;14.35;9.35;;;332.90;1228.80;;;;;;5092928;28;20036;-78
2021/04/16 14:08:37;;;;;;;17.27;11.45;;;332.90;1254.40;;;;;;5094517;28;20385;-78
2021/04/16 14:11:04;;;;;;;10.82;8.68;;;332.90;1280.00;;;;;;5092857;28;20036;-77
2021/04/16 14:13:30;;;;;;;10.35;8.60;;;332.90;1254.40;;;;;;5093179;28;20047;-77
2021/04/16 14:16:01;;;;;;;18.73;10.63;;;332.90;1254.40;;;;;;5094397;28;20028;-77
2021/04/16 14:18:28;;;;;;;;;;;332.90;1280.00;;;;;;5093272;28;20097;-77
2021/04/16 14:20:54;;;;;;;13.93;9.48;;;332.90;1280.00;;;;;;5126889;27;19968;-78
2021/04/16 14:23:21;;;;;;;26.35;12.05;;;332.90;1280.00;;;;;;5094228;28;20059;-78
2021/04/16 14:25:47;;;;;;;9.07;6.97;;;332.80;1305.60;;;;;;5093056;28;20393;-77
2021/04/16 14:28:15;;;;;;;10.27;6.75;;;332.80;1280.00;;;;;;5093566;28;20024;-78
2021/04/16 14:30:43;;;;;;;10.02;8.20;;;332.80;1280.00;;;;;;5092492;28;20119;-79
2021/04/16 14:33:13;;;;;;;8.40;7.43;;;332.90;1254.40;;;;;;5094185;28;20103;-77